H.r.spies — AESJ — position and weather

sailwx.info

Track history (hours):
 
Tides and Currents Weather Stations Pressure Air Temp Water Temp Dewpoint Dewpoint Depression Visibility Wind Speed Wind Dir Waves Ship Positions

H.r.spies

Last reported at 2017-Oct-20 08:29 UTC. Time now 2017-Oct-20 08:50 UTC.
Position N 38°48' W 075°10'.

; draft 5 m.

Type: Dredging. MMSI: 368926068.

Date/timePositionNaut miles runAvg speedWind from/ knotsBaromVisibWave heightAir tempDewpointWater temp
2017-Oct-20 08:29N 38°48' W 075°10'0 0.0
2017-Oct-20 07:59N 38°48' W 075°10'0 0.0
2017-Oct-20 07:29N 38°48' W 075°10'0 0.0
2017-Oct-20 06:56N 38°48' W 075°10'0 0.0
2017-Oct-20 06:23N 38°48' W 075°10'0 0.0
2017-Oct-20 05:59N 38°48' W 075°10'0 0.0
2017-Oct-20 05:26N 38°48' W 075°10'0 0.0
2017-Oct-20 04:59N 38°48' W 075°10'0 0.0
2017-Oct-20 04:29N 38°48' W 075°10'0 0.0
2017-Oct-20 03:59N 38°48' W 075°10'0 0.0
2017-Oct-20 03:30N 38°48' W 075°10'0 0.0
2017-Oct-20 03:00N 38°48' W 075°10'0 0.0
2017-Oct-20 02:30N 38°48' W 075°10'17 2.3
2017-Oct-19 18:51N 39°05' W 075°13'514.8
2017-Oct-19 18:30N 39°10' W 075°15'0 0.9
2017-Oct-19 18:01N 39°10' W 075°16'1 1.3
2017-Oct-19 17:30N 39°09' W 075°15'0 0.9
2017-Oct-19 17:00N 39°09' W 075°15'1 1.3
2017-Oct-19 16:30N 39°10' W 075°15'0 0.3
2017-Oct-19 16:00N 39°10' W 075°15'1 1.4
2017-Oct-19 15:30N 39°09' W 075°15'0 1.0
2017-Oct-19 15:00N 39°10' W 075°15'1 1.2
2017-Oct-19 14:30N 39°10' W 075°15'1 1.7
2017-Oct-19 13:58N 39°09' W 075°15'0 0.3
2017-Oct-19 13:30N 39°09' W 075°15'1 1.6
2017-Oct-19 13:00N 39°10' W 075°15'2 4.1
2017-Oct-19 12:30N 39°08' W 075°14'1326.5
2017-Oct-19 12:00N 38°55' W 075°10'8 3.4
2017-Oct-19 09:47N 38°48' W 075°10'11 0.9
2017-Oct-18 20:54N 38°59' W 075°11'1026.0
2017-Oct-18 20:30N 39°09' W 075°15'0 0.9
2017-Oct-18 20:00N 39°09' W 075°15'1 1.5
2017-Oct-18 19:30N 39°08' W 075°14'0 0.2
2017-Oct-18 19:01N 39°08' W 075°14'1 1.6
2017-Oct-18 18:30N 39°09' W 075°15'1 1.1
2017-Oct-18 18:00N 39°09' W 075°14'1 1.0
2017-Oct-18 17:30N 39°08' W 075°14'1 1.6
2017-Oct-18 16:58N 39°09' W 075°15'2 2.5
2017-Oct-18 16:20N 39°08' W 075°13'1 0.9
2017-Oct-18 15:45N 39°08' W 075°14'0 0.9
2017-Oct-18 15:30N 39°08' W 075°14'1 2.4
2017-Oct-18 15:01N 39°09' W 075°15'0 0.5
2017-Oct-18 14:00N 39°09' W 075°14'1 1.4
2017-Oct-18 13:31N 39°08' W 075°14'0 0.6
2017-Oct-18 13:00N 39°09' W 075°14'4 7.1
2017-Oct-18 12:31N 39°06' W 075°12'1427.2
2017-Oct-18 12:00N 38°52' W 075°09'4 6.3
2017-Oct-18 11:19N 38°48' W 075°10'0 0.0
2017-Oct-18 10:58N 38°48' W 075°10'16 0.4
2017-Oct-16 14:47N 39°03' W 075°12'621.9
2017-Oct-16 14:30N 39°09' W 075°14'2323.2
2017-Oct-16 13:30N 39°27' W 075°33'816.8
2017-Oct-16 13:01N 39°33' W 075°41'611.6
2017-Oct-16 12:29N 39°32' W 075°49'0 0.0
2017-Oct-16 11:59N 39°32' W 075°49'0 0.0
2017-Oct-16 11:29N 39°32' W 075°49'0 0.0
2017-Oct-16 10:59N 39°32' W 075°49'0 0.0
2017-Oct-16 10:29N 39°32' W 075°49'0 0.0
2017-Oct-16 09:59N 39°32' W 075°49'0 0.0
2017-Oct-16 09:30N 39°32' W 075°49'0 0.0
2017-Oct-16 09:00N 39°32' W 075°49'0 0.0
2017-Oct-16 08:28N 39°32' W 075°49'0 0.0
2017-Oct-16 07:55N 39°32' W 075°49'0 0.0
2017-Oct-16 07:28N 39°32' W 075°49'0 0.0
2017-Oct-16 06:58N 39°32' W 075°49'0 0.0
2017-Oct-16 06:28N 39°32' W 075°49'0 0.0
2017-Oct-16 05:58N 39°32' W 075°49'0 0.0
2017-Oct-16 05:28N 39°32' W 075°49'0 0.0
2017-Oct-16 04:58N 39°32' W 075°49'0 0.0
2017-Oct-16 04:28N 39°32' W 075°49'0 0.0
2017-Oct-16 03:58N 39°32' W 075°49'0 0.0
2017-Oct-16 03:28N 39°32' W 075°49'0 0.0
2017-Oct-16 02:52N 39°32' W 075°49'0 0.0
2017-Oct-16 02:28N 39°32' W 075°49'0 0.0
2017-Oct-16 01:58N 39°32' W 075°49'0 0.0
2017-Oct-16 01:28N 39°32' W 075°49'0 0.0
2017-Oct-16 00:58N 39°32' W 075°49'0 0.0
2017-Oct-16 00:25N 39°32' W 075°49'0 0.0
2017-Oct-15 23:58N 39°32' W 075°49'0 0.0
2017-Oct-15 23:28N 39°32' W 075°49'0 0.0
2017-Oct-15 22:52N 39°32' W 075°49'0 0.0
2017-Oct-15 22:28N 39°32' W 075°49'0 0.0
2017-Oct-15 21:58N 39°32' W 075°49'0 0.0
2017-Oct-15 21:30N 39°32' W 075°49'0 0.0
2017-Oct-15 20:57N 39°32' W 075°49'0 0.0
2017-Oct-15 20:30N 39°32' W 075°49'0 0.0
2017-Oct-15 20:00N 39°32' W 075°49'0 0.0
2017-Oct-15 19:28N 39°32' W 075°49'0 0.0
2017-Oct-15 18:58N 39°32' W 075°49'0 0.0
2017-Oct-15 18:30N 39°32' W 075°49'0 0.0
2017-Oct-15 18:00N 39°32' W 075°49'0 0.0
2017-Oct-15 17:30N 39°32' W 075°49'0 0.0
2017-Oct-15 17:00N 39°32' W 075°49'0 0.0
2017-Oct-15 16:30N 39°32' W 075°49'0 0.0
2017-Oct-15 15:58N 39°32' W 075°49'0 0.0
2017-Oct-15 15:30N 39°32' W 075°49'0 0.0
2017-Oct-15 15:00N 39°32' W 075°49'0 0.0
2017-Oct-15 14:00N 39°32' W 075°49'0 0.0
2017-Oct-15 13:30N 39°32' W 075°49'0 0.0
2017-Oct-15 13:00N 39°32' W 075°49'0 0.0
2017-Oct-15 12:30N 39°32' W 075°49'0 0.0
2017-Oct-15 12:00N 39°32' W 075°49'0 0.0
2017-Oct-15 11:28N 39°32' W 075°49'0 0.0
2017-Oct-15 11:00N 39°32' W 075°49'0 0.0
2017-Oct-15 10:28N 39°32' W 075°49'0 0.0
2017-Oct-15 10:00N 39°32' W 075°49'0 0.0
2017-Oct-15 09:30N 39°32' W 075°49'0 0.0
2017-Oct-15 09:00N 39°32' W 075°49'0 0.0
2017-Oct-15 08:30N 39°32' W 075°49'0 0.0
2017-Oct-15 08:00N 39°32' W 075°49'0 0.0
2017-Oct-15 07:30N 39°32' W 075°49'0 0.0
2017-Oct-15 07:00N 39°32' W 075°49'0 0.0
2017-Oct-15 06:30N 39°32' W 075°49'0 0.0
2017-Oct-15 06:00N 39°32' W 075°49'0 0.0
2017-Oct-15 05:30N 39°32' W 075°49'0 0.0
2017-Oct-15 04:54N 39°32' W 075°49'0 0.0
2017-Oct-15 04:30N 39°32' W 075°49'0 0.0
2017-Oct-15 04:00N 39°32' W 075°49'0 0.0
2017-Oct-15 03:28N 39°32' W 075°49'0 0.0
2017-Oct-15 02:58N 39°32' W 075°49'0 0.0
2017-Oct-15 02:30N 39°32' W 075°49'0 0.0
2017-Oct-15 02:00N 39°32' W 075°49'0 0.0
2017-Oct-15 01:30N 39°32' W 075°49'0 0.0
2017-Oct-15 01:00N 39°32' W 075°49'0 0.0
2017-Oct-15 00:24N 39°32' W 075°49'0 0.0
2017-Oct-14 23:57N 39°32' W 075°49'0 0.0
2017-Oct-14 23:30N 39°32' W 075°49'0 0.0
2017-Oct-14 23:00N 39°32' W 075°49'0 0.0
2017-Oct-14 22:30N 39°32' W 075°49'0 0.0
2017-Oct-14 22:00N 39°32' W 075°49'0 0.0
2017-Oct-14 21:30N 39°32' W 075°49'0 0.0
2017-Oct-14 21:00N 39°32' W 075°49'0 0.0
2017-Oct-14 20:30N 39°32' W 075°49'0 0.0
2017-Oct-14 20:00N 39°32' W 075°49'0 0.0
2017-Oct-14 19:30N 39°32' W 075°49'0 0.0
2017-Oct-14 19:00N 39°32' W 075°49'0 0.0
2017-Oct-14 18:30N 39°32' W 075°49'0 0.0
2017-Oct-14 17:57N 39°32' W 075°49'0 0.0
2017-Oct-14 17:30N 39°32' W 075°49'0 0.0
2017-Oct-14 17:00N 39°32' W 075°49'4 7.6
2017-Oct-14 16:31N 39°31' W 075°53'1427.7
2017-Oct-14 16:00N 39°22' W 076°08'17 0.8
2017-Oct-13 18:16N 39°32' W 075°49'0 0.0
2017-Oct-13 17:58N 39°32' W 075°49'0 0.0
2017-Oct-13 17:28N 39°32' W 075°49'0 0.0
2017-Oct-13 16:58N 39°32' W 075°49'0 0.0
2017-Oct-13 16:28N 39°32' W 075°49'1 1.8
2017-Oct-13 16:00N 39°32' W 075°50'919.0
2017-Oct-13 15:31N 39°27' W 075°60'1121.1
2017-Oct-13 15:00N 39°20' W 076°11'0 0.1
2017-Oct-13 12:55N 39°20' W 076°11'614.9
2017-Oct-13 12:31N 39°24' W 076°05'1121.5
2017-Oct-13 12:01N 39°31' W 075°54'4 0.3
2017-Oct-12 19:02N 39°32' W 075°49'0 0.0
2017-Oct-12 19:01N 39°32' W 075°49'0 0.0
2017-Oct-12 18:31N 39°32' W 075°49'1 2.7
2017-Oct-12 18:01N 39°32' W 075°47'1121.1
2017-Oct-12 17:31N 39°36' W 075°34'1326.8
2017-Oct-12 17:01N 39°48' W 075°26'612.5
2017-Oct-12 16:30N 39°51' W 075°19'0 0.2
2017-Oct-12 16:00N 39°51' W 075°19'0 0.1
2017-Oct-12 15:31N 39°51' W 075°19'0 0.4
2017-Oct-12 15:01N 39°51' W 075°19'0 0.2
2017-Oct-12 14:30N 39°51' W 075°19'0 0.4
2017-Oct-12 14:01N 39°51' W 075°19'5 9.8
2017-Oct-12 13:30N 39°48' W 075°25'1019.2
2017-Oct-12 13:01N 39°41' W 075°32'917.1
2017-Oct-12 12:30N 39°33' W 075°38'917.1
2017-Oct-12 12:01N 39°32' W 075°49'0 0.0
2017-Oct-12 11:30N 39°32' W 075°49'0 0.0
2017-Oct-12 11:00N 39°32' W 075°49'0 0.0
2017-Oct-12 10:29N 39°32' W 075°49'0 0.0
2017-Oct-11 18:56N 39°32' W 075°49'0 0.0
2017-Oct-11 18:29N 39°32' W 075°49'0 0.0
2017-Oct-11 17:59N 39°32' W 075°49'0 0.0
2017-Oct-11 17:29N 39°32' W 075°49'0 0.0
2017-Oct-11 16:59N 39°32' W 075°49'39 2.1
2017-Oct-10 22:05N 39°04' W 075°12'228.3
2017-Oct-10 22:01N 39°06' W 075°13'1 2.4
2017-Oct-10 21:30N 39°07' W 075°13'0 0.2
2017-Oct-10 21:00N 39°08' W 075°13'0 0.8
2017-Oct-10 20:31N 39°08' W 075°14'0 0.2
2017-Oct-10 20:01N 39°08' W 075°14'0 0.4
2017-Oct-10 19:30N 39°08' W 075°14'0 0.7
2017-Oct-10 19:00N 39°08' W 075°14'0 0.5
2017-Oct-10 18:30N 39°08' W 075°14'0 0.3
2017-Oct-10 18:00N 39°08' W 075°14'0 0.5
2017-Oct-10 17:30N 39°08' W 075°14'0 0.7
2017-Oct-10 17:00N 39°08' W 075°14'0 0.4
2017-Oct-10 16:30N 39°08' W 075°14'1 1.4
2017-Oct-10 15:59N 39°08' W 075°13'4 7.1
2017-Oct-10 15:27N 39°04' W 075°11'1725.8
2017-Oct-10 14:48N 38°47' W 075°10'0 0.2
2017-Oct-10 13:51N 38°48' W 075°10'1 3.5
2017-Oct-10 13:30N 38°49' W 075°09'2 4.7
2017-Oct-10 13:00N 38°51' W 075°10'3 5.9
2017-Oct-10 12:26N 38°48' W 075°10'  
Track history (hours):
 
Tides and Currents Weather Stations Pressure Air Temp Water Temp Dewpoint Dewpoint Depression Visibility Wind Speed Wind Dir Waves Ship Positions

H.r.spies

Last reported at 2017-Oct-20 08:29 UTC. Time now 2017-Oct-20 08:50 UTC.
Position N 38°48' W 075°10'.

; draft 5 m.

Type: Dredging. MMSI: 368926068.

Date/timePositionNaut miles runAvg speedWind from/ knotsBaromVisibWave heightAir tempDewpointWater temp
2017-Oct-20 08:29N 38°48' W 075°10'0 0.0
2017-Oct-20 07:59N 38°48' W 075°10'0 0.0
2017-Oct-20 07:29N 38°48' W 075°10'0 0.0
2017-Oct-20 06:56N 38°48' W 075°10'0 0.0
2017-Oct-20 06:23N 38°48' W 075°10'0 0.0
2017-Oct-20 05:59N 38°48' W 075°10'0 0.0
2017-Oct-20 05:26N 38°48' W 075°10'0 0.0
2017-Oct-20 04:59N 38°48' W 075°10'0 0.0
2017-Oct-20 04:29N 38°48' W 075°10'0 0.0
2017-Oct-20 03:59N 38°48' W 075°10'0 0.0
2017-Oct-20 03:30N 38°48' W 075°10'0 0.0
2017-Oct-20 03:00N 38°48' W 075°10'0 0.0
2017-Oct-20 02:30N 38°48' W 075°10'17 2.3
2017-Oct-19 18:51N 39°05' W 075°13'514.8
2017-Oct-19 18:30N 39°10' W 075°15'0 0.9
2017-Oct-19 18:01N 39°10' W 075°16'1 1.3
2017-Oct-19 17:30N 39°09' W 075°15'0 0.9
2017-Oct-19 17:00N 39°09' W 075°15'1 1.3
2017-Oct-19 16:30N 39°10' W 075°15'0 0.3
2017-Oct-19 16:00N 39°10' W 075°15'1 1.4
2017-Oct-19 15:30N 39°09' W 075°15'0 1.0
2017-Oct-19 15:00N 39°10' W 075°15'1 1.2
2017-Oct-19 14:30N 39°10' W 075°15'1 1.7
2017-Oct-19 13:58N 39°09' W 075°15'0 0.3
2017-Oct-19 13:30N 39°09' W 075°15'1 1.6
2017-Oct-19 13:00N 39°10' W 075°15'2 4.1
2017-Oct-19 12:30N 39°08' W 075°14'1326.5
2017-Oct-19 12:00N 38°55' W 075°10'8 3.4
2017-Oct-19 09:47N 38°48' W 075°10'11 0.9
2017-Oct-18 20:54N 38°59' W 075°11'1026.0
2017-Oct-18 20:30N 39°09' W 075°15'0 0.9
2017-Oct-18 20:00N 39°09' W 075°15'1 1.5
2017-Oct-18 19:30N 39°08' W 075°14'0 0.2
2017-Oct-18 19:01N 39°08' W 075°14'1 1.6
2017-Oct-18 18:30N 39°09' W 075°15'1 1.1
2017-Oct-18 18:00N 39°09' W 075°14'1 1.0
2017-Oct-18 17:30N 39°08' W 075°14'1 1.6
2017-Oct-18 16:58N 39°09' W 075°15'2 2.5
2017-Oct-18 16:20N 39°08' W 075°13'1 0.9
2017-Oct-18 15:45N 39°08' W 075°14'0 0.9
2017-Oct-18 15:30N 39°08' W 075°14'1 2.4
2017-Oct-18 15:01N 39°09' W 075°15'0 0.5
2017-Oct-18 14:00N 39°09' W 075°14'1 1.4
2017-Oct-18 13:31N 39°08' W 075°14'0 0.6
2017-Oct-18 13:00N 39°09' W 075°14'4 7.1
2017-Oct-18 12:31N 39°06' W 075°12'1427.2
2017-Oct-18 12:00N 38°52' W 075°09'4 6.3
2017-Oct-18 11:19N 38°48' W 075°10'0 0.0
2017-Oct-18 10:58N 38°48' W 075°10'16 0.4
2017-Oct-16 14:47N 39°03' W 075°12'621.9
2017-Oct-16 14:30N 39°09' W 075°14'2323.2
2017-Oct-16 13:30N 39°27' W 075°33'816.8
2017-Oct-16 13:01N 39°33' W 075°41'611.6
2017-Oct-16 12:29N 39°32' W 075°49'0 0.0
2017-Oct-16 11:59N 39°32' W 075°49'0 0.0
2017-Oct-16 11:29N 39°32' W 075°49'0 0.0
2017-Oct-16 10:59N 39°32' W 075°49'0 0.0
2017-Oct-16 10:29N 39°32' W 075°49'0 0.0
2017-Oct-16 09:59N 39°32' W 075°49'0 0.0
2017-Oct-16 09:30N 39°32' W 075°49'0 0.0
2017-Oct-16 09:00N 39°32' W 075°49'0 0.0
2017-Oct-16 08:28N 39°32' W 075°49'0 0.0
2017-Oct-16 07:55N 39°32' W 075°49'0 0.0
2017-Oct-16 07:28N 39°32' W 075°49'0 0.0
2017-Oct-16 06:58N 39°32' W 075°49'0 0.0
2017-Oct-16 06:28N 39°32' W 075°49'0 0.0
2017-Oct-16 05:58N 39°32' W 075°49'0 0.0
2017-Oct-16 05:28N 39°32' W 075°49'0 0.0
2017-Oct-16 04:58N 39°32' W 075°49'0 0.0
2017-Oct-16 04:28N 39°32' W 075°49'0 0.0
2017-Oct-16 03:58N 39°32' W 075°49'0 0.0
2017-Oct-16 03:28N 39°32' W 075°49'0 0.0
2017-Oct-16 02:52N 39°32' W 075°49'0 0.0
2017-Oct-16 02:28N 39°32' W 075°49'0 0.0
2017-Oct-16 01:58N 39°32' W 075°49'0 0.0
2017-Oct-16 01:28N 39°32' W 075°49'0 0.0
2017-Oct-16 00:58N 39°32' W 075°49'0 0.0
2017-Oct-16 00:25N 39°32' W 075°49'0 0.0
2017-Oct-15 23:58N 39°32' W 075°49'0 0.0
2017-Oct-15 23:28N 39°32' W 075°49'0 0.0
2017-Oct-15 22:52N 39°32' W 075°49'0 0.0
2017-Oct-15 22:28N 39°32' W 075°49'0 0.0
2017-Oct-15 21:58N 39°32' W 075°49'0 0.0
2017-Oct-15 21:30N 39°32' W 075°49'0 0.0
2017-Oct-15 20:57N 39°32' W 075°49'0 0.0
2017-Oct-15 20:30N 39°32' W 075°49'0 0.0
2017-Oct-15 20:00N 39°32' W 075°49'0 0.0
2017-Oct-15 19:28N 39°32' W 075°49'0 0.0
2017-Oct-15 18:58N 39°32' W 075°49'0 0.0
2017-Oct-15 18:30N 39°32' W 075°49'0 0.0
2017-Oct-15 18:00N 39°32' W 075°49'0 0.0
2017-Oct-15 17:30N 39°32' W 075°49'0 0.0
2017-Oct-15 17:00N 39°32' W 075°49'0 0.0
2017-Oct-15 16:30N 39°32' W 075°49'0 0.0
2017-Oct-15 15:58N 39°32' W 075°49'0 0.0
2017-Oct-15 15:30N 39°32' W 075°49'0 0.0
2017-Oct-15 15:00N 39°32' W 075°49'0 0.0
2017-Oct-15 14:00N 39°32' W 075°49'0 0.0
2017-Oct-15 13:30N 39°32' W 075°49'0 0.0
2017-Oct-15 13:00N 39°32' W 075°49'0 0.0
2017-Oct-15 12:30N 39°32' W 075°49'0 0.0
2017-Oct-15 12:00N 39°32' W 075°49'0 0.0
2017-Oct-15 11:28N 39°32' W 075°49'0 0.0
2017-Oct-15 11:00N 39°32' W 075°49'0 0.0
2017-Oct-15 10:28N 39°32' W 075°49'0 0.0
2017-Oct-15 10:00N 39°32' W 075°49'0 0.0
2017-Oct-15 09:30N 39°32' W 075°49'0 0.0
2017-Oct-15 09:00N 39°32' W 075°49'0 0.0
2017-Oct-15 08:30N 39°32' W 075°49'0 0.0
2017-Oct-15 08:00N 39°32' W 075°49'0 0.0
2017-Oct-15 07:30N 39°32' W 075°49'0 0.0
2017-Oct-15 07:00N 39°32' W 075°49'0 0.0
2017-Oct-15 06:30N 39°32' W 075°49'0 0.0
2017-Oct-15 06:00N 39°32' W 075°49'0 0.0
2017-Oct-15 05:30N 39°32' W 075°49'0 0.0
2017-Oct-15 04:54N 39°32' W 075°49'0 0.0
2017-Oct-15 04:30N 39°32' W 075°49'0 0.0
2017-Oct-15 04:00N 39°32' W 075°49'0 0.0
2017-Oct-15 03:28N 39°32' W 075°49'0 0.0
2017-Oct-15 02:58N 39°32' W 075°49'0 0.0
2017-Oct-15 02:30N 39°32' W 075°49'0 0.0
2017-Oct-15 02:00N 39°32' W 075°49'0 0.0
2017-Oct-15 01:30N 39°32' W 075°49'0 0.0
2017-Oct-15 01:00N 39°32' W 075°49'0 0.0
2017-Oct-15 00:24N 39°32' W 075°49'0 0.0
2017-Oct-14 23:57N 39°32' W 075°49'0 0.0
2017-Oct-14 23:30N 39°32' W 075°49'0 0.0
2017-Oct-14 23:00N 39°32' W 075°49'0 0.0
2017-Oct-14 22:30N 39°32' W 075°49'0 0.0
2017-Oct-14 22:00N 39°32' W 075°49'0 0.0
2017-Oct-14 21:30N 39°32' W 075°49'0 0.0
2017-Oct-14 21:00N 39°32' W 075°49'0 0.0
2017-Oct-14 20:30N 39°32' W 075°49'0 0.0
2017-Oct-14 20:00N 39°32' W 075°49'0 0.0
2017-Oct-14 19:30N 39°32' W 075°49'0 0.0
2017-Oct-14 19:00N 39°32' W 075°49'0 0.0
2017-Oct-14 18:30N 39°32' W 075°49'0 0.0
2017-Oct-14 17:57N 39°32' W 075°49'0 0.0
2017-Oct-14 17:30N 39°32' W 075°49'0 0.0
2017-Oct-14 17:00N 39°32' W 075°49'4 7.6
2017-Oct-14 16:31N 39°31' W 075°53'1427.7
2017-Oct-14 16:00N 39°22' W 076°08'17 0.8
2017-Oct-13 18:16N 39°32' W 075°49'0 0.0
2017-Oct-13 17:58N 39°32' W 075°49'0 0.0
2017-Oct-13 17:28N 39°32' W 075°49'0 0.0
2017-Oct-13 16:58N 39°32' W 075°49'0 0.0
2017-Oct-13 16:28N 39°32' W 075°49'1 1.8
2017-Oct-13 16:00N 39°32' W 075°50'919.0
2017-Oct-13 15:31N 39°27' W 075°60'1121.1
2017-Oct-13 15:00N 39°20' W 076°11'0 0.1
2017-Oct-13 12:55N 39°20' W 076°11'614.9
2017-Oct-13 12:31N 39°24' W 076°05'1121.5
2017-Oct-13 12:01N 39°31' W 075°54'4 0.3
2017-Oct-12 19:02N 39°32' W 075°49'0 0.0
2017-Oct-12 19:01N 39°32' W 075°49'0 0.0
2017-Oct-12 18:31N 39°32' W 075°49'1 2.7
2017-Oct-12 18:01N 39°32' W 075°47'1121.1
2017-Oct-12 17:31N 39°36' W 075°34'1326.8
2017-Oct-12 17:01N 39°48' W 075°26'612.5
2017-Oct-12 16:30N 39°51' W 075°19'0 0.2
2017-Oct-12 16:00N 39°51' W 075°19'0 0.1
2017-Oct-12 15:31N 39°51' W 075°19'0 0.4
2017-Oct-12 15:01N 39°51' W 075°19'0 0.2
2017-Oct-12 14:30N 39°51' W 075°19'0 0.4
2017-Oct-12 14:01N 39°51' W 075°19'5 9.8
2017-Oct-12 13:30N 39°48' W 075°25'1019.2
2017-Oct-12 13:01N 39°41' W 075°32'917.1
2017-Oct-12 12:30N 39°33' W 075°38'917.1
2017-Oct-12 12:01N 39°32' W 075°49'0 0.0
2017-Oct-12 11:30N 39°32' W 075°49'0 0.0
2017-Oct-12 11:00N 39°32' W 075°49'0 0.0
2017-Oct-12 10:29N 39°32' W 075°49'0 0.0
2017-Oct-11 18:56N 39°32' W 075°49'0 0.0
2017-Oct-11 18:29N 39°32' W 075°49'0 0.0
2017-Oct-11 17:59N 39°32' W 075°49'0 0.0
2017-Oct-11 17:29N 39°32' W 075°49'0 0.0
2017-Oct-11 16:59N 39°32' W 075°49'39 2.1
2017-Oct-10 22:05N 39°04' W 075°12'228.3
2017-Oct-10 22:01N 39°06' W 075°13'1 2.4
2017-Oct-10 21:30N 39°07' W 075°13'0 0.2
2017-Oct-10 21:00N 39°08' W 075°13'0 0.8
2017-Oct-10 20:31N 39°08' W 075°14'0 0.2
2017-Oct-10 20:01N 39°08' W 075°14'0 0.4
2017-Oct-10 19:30N 39°08' W 075°14'0 0.7
2017-Oct-10 19:00N 39°08' W 075°14'0 0.5
2017-Oct-10 18:30N 39°08' W 075°14'0 0.3
2017-Oct-10 18:00N 39°08' W 075°14'0 0.5
2017-Oct-10 17:30N 39°08' W 075°14'0 0.7
2017-Oct-10 17:00N 39°08' W 075°14'0 0.4
2017-Oct-10 16:30N 39°08' W 075°14'1 1.4
2017-Oct-10 15:59N 39°08' W 075°13'4 7.1
2017-Oct-10 15:27N 39°04' W 075°11'1725.8
2017-Oct-10 14:48N 38°47' W 075°10'0 0.2
2017-Oct-10 13:51N 38°48' W 075°10'1 3.5
2017-Oct-10 13:30N 38°49' W 075°09'2 4.7
2017-Oct-10 13:00N 38°51' W 075°10'3 5.9
2017-Oct-10 12:26N 38°48' W 075°10'  

Dump ship's entire track history